createdAt,value
2018-12-14T00:02:06.594Z,47.17
2018-12-14T00:04:36.002Z,45.40
2018-12-14T00:07:05.388Z,45.07
2018-12-14T00:09:34.442Z,47.40
2018-12-14T00:12:03.492Z,49.77
2018-12-14T00:14:32.660Z,45.50
2018-12-14T00:17:01.825Z,45.37
2018-12-14T00:19:30.910Z,45.33
2018-12-14T00:22:00.352Z,42.03
2018-12-14T00:24:29.525Z,42.23
2018-12-14T00:26:59.066Z,41.13
2018-12-14T00:29:28.255Z,43.40
2018-12-14T00:31:57.443Z,41.83
2018-12-14T00:34:26.468Z,43.60
2018-12-14T00:36:55.641Z,43.43
2018-12-14T00:39:24.735Z,43.33
2018-12-14T00:41:53.755Z,38.47
2018-12-14T00:44:23.069Z,43.57
2018-12-14T00:46:52.138Z,43.77
2018-12-14T00:49:21.571Z,41.93
2018-12-14T00:51:50.594Z,45.77
2018-12-14T00:54:19.846Z,44.60
2018-12-14T00:56:49.924Z,44.77
2018-12-14T00:59:19.020Z,44.60
2018-12-14T01:01:48.112Z,44.57
2018-12-14T01:04:17.271Z,45.27
2018-12-14T01:06:46.699Z,48.10
2018-12-14T01:09:15.947Z,51.73
2018-12-14T01:11:45.368Z,41.03
2018-12-14T01:14:14.674Z,47.87
2018-12-14T01:16:43.860Z,46.57
2018-12-14T01:19:13.114Z,47.40
2018-12-14T01:21:42.326Z,43.33
2018-12-14T01:24:11.453Z,50.03
2018-12-14T01:26:40.502Z,50.47
2018-12-14T01:29:09.633Z,43.03
2018-12-14T01:31:38.662Z,48.70
2018-12-14T01:34:07.735Z,44.20
2018-12-14T01:36:36.799Z,46.07
2018-12-14T01:39:07.833Z,53.90
2018-12-14T01:41:37.712Z,46.27
2018-12-14T01:44:06.876Z,48.60
2018-12-14T01:46:35.960Z,48.47
2018-12-14T01:49:05.161Z,45.37
2018-12-14T01:51:34.432Z,48.83
2018-12-14T01:54:03.516Z,50.93
2018-12-14T01:56:32.738Z,48.97
2018-12-14T01:59:02.456Z,52.13
2018-12-14T02:01:31.513Z,49.17
2018-12-14T02:04:01.384Z,54.07
2018-12-14T02:06:30.463Z,53.37
2018-12-14T02:08:59.507Z,52.10
2018-12-14T02:11:28.684Z,54.00
2018-12-14T02:13:57.914Z,51.87
2018-12-14T02:16:27.066Z,48.80
2018-12-14T02:18:56.138Z,48.63
2018-12-14T02:21:25.257Z,50.63
2018-12-14T02:23:54.515Z,52.20
2018-12-14T02:26:23.843Z,54.93
2018-12-14T02:28:52.904Z,57.17
2018-12-14T02:31:22.166Z,59.90
2018-12-14T02:33:51.325Z,61.90
2018-12-14T02:36:20.465Z,61.07
2018-12-14T02:38:49.555Z,55.50
2018-12-14T02:41:18.835Z,59.17
2018-12-14T02:43:47.992Z,57.00
2018-12-14T02:46:17.246Z,53.27
2018-12-14T02:48:46.335Z,53.80
2018-12-14T02:51:15.404Z,54.20
2018-12-14T02:53:44.535Z,58.77
2018-12-14T02:56:13.691Z,59.23
2018-12-14T02:58:43.054Z,55.60
2018-12-14T03:01:12.247Z,53.07
2018-12-14T03:03:41.345Z,50.40
2018-12-14T03:06:10.442Z,51.67
2018-12-14T03:08:39.562Z,50.40
2018-12-14T03:11:09.330Z,52.50
2018-12-14T03:13:38.364Z,54.70
2018-12-14T03:16:07.603Z,48.93
2018-12-14T03:18:37.469Z,56.67
2018-12-14T03:21:06.617Z,48.47
2018-12-14T03:23:35.668Z,48.63
2018-12-14T03:26:05.047Z,48.03
2018-12-14T03:28:34.109Z,45.50
2018-12-14T03:31:03.734Z,42.53
2018-12-14T03:33:32.762Z,47.53
2018-12-14T03:36:01.848Z,47.33
2018-12-14T03:38:30.887Z,50.43
2018-12-14T03:41:00.233Z,53.43
2018-12-14T03:43:29.285Z,47.37
2018-12-14T03:45:58.363Z,47.67
2018-12-14T03:48:27.518Z,48.43
2018-12-14T03:50:56.646Z,49.60
2018-12-14T03:53:26.704Z,51.67
2018-12-14T03:55:55.885Z,51.87
2018-12-14T03:58:24.941Z,55.07
2018-12-14T04:00:54.178Z,53.03
2018-12-14T04:03:23.457Z,56.07
2018-12-14T04:05:52.686Z,55.67
2018-12-14T04:08:21.991Z,54.43
2018-12-14T04:10:51.058Z,62.03
2018-12-14T04:13:20.329Z,57.17
2018-12-14T04:15:49.730Z,52.07
2018-12-14T04:18:18.771Z,55.37
2018-12-14T04:20:47.835Z,58.17
2018-12-14T04:23:16.979Z,57.60
2018-12-14T04:25:46.078Z,58.77
2018-12-14T04:28:15.294Z,63.33
2018-12-14T04:30:44.346Z,56.37
2018-12-14T04:33:13.898Z,57.43
2018-12-14T04:35:43.153Z,54.90
2018-12-14T04:38:12.231Z,62.07
2018-12-14T04:40:41.767Z,62.47
2018-12-14T04:43:10.990Z,60.83
2018-12-14T04:45:40.234Z,65.93
2018-12-14T04:48:09.312Z,62.10
2018-12-14T04:50:38.387Z,62.87
2018-12-14T04:53:07.437Z,61.60
2018-12-14T04:55:36.886Z,68.37
2018-12-14T04:58:07.096Z,65.07
2018-12-14T05:00:36.348Z,67.07
2018-12-14T05:03:05.507Z,65.50
2018-12-14T05:05:34.663Z,60.50
2018-12-14T05:08:04.210Z,65.33
2018-12-14T05:10:33.739Z,60.83
2018-12-14T05:13:02.809Z,56.30
2018-12-14T05:15:31.946Z,58.20
2018-12-14T05:18:01.083Z,58.93
2018-12-14T05:20:30.381Z,58.10
2018-12-14T05:22:59.705Z,55.13
2018-12-14T05:25:29.223Z,59.57
2018-12-14T05:27:58.293Z,54.10
2018-12-14T05:30:27.334Z,52.90
2018-12-14T05:32:56.403Z,54.67
2018-12-14T05:35:25.502Z,53.97
2018-12-14T05:37:54.563Z,53.27
2018-12-14T05:40:30.259Z,54.70
2018-12-14T05:43:02.602Z,55.93
2018-12-14T05:45:30.357Z,52.67
2018-12-14T05:48:00.002Z,56.67
2018-12-14T05:50:29.048Z,54.20
2018-12-14T05:52:58.563Z,52.97
2018-12-14T05:55:28.408Z,54.03
2018-12-14T05:57:57.563Z,54.40
2018-12-14T06:00:26.770Z,52.00
2018-12-14T06:02:55.869Z,55.50
2018-12-14T06:05:25.229Z,52.67
2018-12-14T06:07:54.562Z,57.47
2018-12-14T06:10:23.598Z,52.37
2018-12-14T06:12:53.260Z,54.77
2018-12-14T06:15:22.298Z,53.77
2018-12-14T06:17:51.366Z,51.80
2018-12-14T06:20:20.649Z,66.23
2018-12-14T06:22:49.752Z,60.57
2018-12-14T06:25:18.942Z,52.20
2018-12-14T06:27:48.591Z,53.53
2018-12-14T06:30:17.653Z,48.40
2018-12-14T06:32:46.724Z,51.90
2018-12-14T06:35:15.787Z,46.63
2018-12-14T06:37:45.048Z,50.57
2018-12-14T06:40:14.558Z,47.67
2018-12-14T06:42:43.795Z,47.83
2018-12-14T06:45:13.308Z,46.60
2018-12-14T06:47:42.342Z,47.73
2018-12-14T06:50:11.564Z,49.47
2018-12-14T06:52:42.097Z,50.63
2018-12-14T06:55:11.397Z,47.53
2018-12-14T06:57:40.430Z,50.33
2018-12-14T07:00:09.785Z,49.93
2018-12-14T07:02:39.179Z,50.37
2018-12-14T07:05:08.224Z,49.53
2018-12-14T07:07:37.325Z,49.87
2018-12-14T07:10:06.994Z,48.93
2018-12-14T07:12:36.140Z,52.17
2018-12-14T07:15:05.530Z,47.67
2018-12-14T07:17:34.609Z,51.23
2018-12-14T07:20:04.119Z,53.17
2018-12-14T07:22:33.435Z,52.00
2018-12-14T07:25:02.704Z,50.40
2018-12-14T07:27:31.763Z,50.13
2018-12-14T07:30:00.775Z,48.00
2018-12-14T07:32:30.000Z,49.63
2018-12-14T07:34:59.057Z,46.90
2018-12-14T07:37:28.080Z,47.63
2018-12-14T07:39:57.771Z,48.30
2018-12-14T07:42:26.946Z,46.90
2018-12-14T07:44:56.148Z,52.67
2018-12-14T07:47:25.956Z,49.57
2018-12-14T07:49:55.171Z,53.10
2018-12-14T07:52:24.820Z,50.87
2018-12-14T07:54:53.898Z,52.53
2018-12-14T07:57:23.218Z,53.27
2018-12-14T07:59:52.259Z,50.67
2018-12-14T08:02:21.346Z,51.60
2018-12-14T08:04:50.391Z,58.10
2018-12-14T08:07:19.461Z,55.67
2018-12-14T08:09:48.578Z,55.40
2018-12-14T08:12:17.609Z,53.43
2018-12-14T08:14:46.644Z,56.50
2018-12-14T08:17:15.796Z,53.33
2018-12-14T08:19:45.183Z,57.03
2018-12-14T08:22:14.490Z,55.57
2018-12-14T08:24:43.649Z,52.17
2018-12-14T08:27:12.799Z,59.80
2018-12-14T08:29:41.859Z,58.03
2018-12-14T08:32:10.955Z,56.47
2018-12-14T08:34:40.107Z,55.80
2018-12-14T08:37:09.262Z,56.97
2018-12-14T08:39:38.438Z,60.10
2018-12-14T08:42:07.556Z,59.67
2018-12-14T08:44:36.767Z,53.43
2018-12-14T08:47:06.531Z,60.53
2018-12-14T08:49:35.577Z,59.83
2018-12-14T08:52:04.633Z,72.77
2018-12-14T08:54:33.675Z,69.70
2018-12-14T08:57:02.767Z,66.40
2018-12-14T08:59:32.096Z,60.53
2018-12-14T09:02:02.252Z,59.20
2018-12-14T09:04:31.312Z,67.00
2018-12-14T09:07:00.370Z,58.23
2018-12-14T09:09:29.708Z,63.47
2018-12-14T09:11:58.922Z,59.77
2018-12-14T09:14:28.360Z,60.60
2018-12-14T09:16:57.526Z,60.03
2018-12-14T09:19:26.581Z,64.20
2018-12-14T09:21:55.977Z,58.90
2018-12-14T09:24:25.056Z,55.27
2018-12-14T09:26:54.197Z,55.07
2018-12-14T09:29:23.435Z,57.83
2018-12-14T09:31:52.688Z,57.90
2018-12-14T09:34:21.785Z,56.97
2018-12-14T09:36:51.860Z,53.90
2018-12-14T09:39:20.933Z,52.93
2018-12-14T09:41:50.143Z,54.07
2018-12-14T09:44:19.213Z,54.20
2018-12-14T09:46:48.286Z,60.00
2018-12-14T09:49:18.042Z,56.53
2018-12-14T09:51:47.138Z,48.17
2018-12-14T09:54:16.266Z,48.50
2018-12-14T09:56:45.631Z,49.50
2018-12-14T09:59:14.709Z,48.87
2018-12-14T10:01:44.252Z,48.03
2018-12-14T10:04:13.314Z,45.47
2018-12-14T10:06:42.430Z,50.13
2018-12-14T10:09:12.302Z,44.67
2018-12-14T10:11:41.359Z,45.93
2018-12-14T10:14:11.615Z,46.23
2018-12-14T10:16:40.710Z,45.87
2018-12-14T10:19:09.872Z,46.53
2018-12-14T10:21:39.056Z,46.50
2018-12-14T10:24:08.262Z,45.33
2018-12-14T10:26:37.315Z,47.73
2018-12-14T10:29:06.389Z,46.80
2018-12-14T10:31:35.864Z,46.73
2018-12-14T10:34:04.887Z,45.77
2018-12-14T10:36:34.073Z,44.17
2018-12-14T10:39:04.886Z,42.77
2018-12-14T10:41:33.972Z,43.27
2018-12-14T10:44:07.388Z,41.77
2018-12-14T10:46:34.891Z,42.13
2018-12-14T10:49:04.238Z,39.30
2018-12-14T10:51:33.877Z,41.07
2018-12-14T10:54:02.963Z,45.13
2018-12-14T10:56:32.048Z,40.90
2018-12-14T10:59:01.111Z,44.23
2018-12-14T11:01:35.606Z,42.00
2018-12-14T11:04:05.679Z,42.07
2018-12-14T11:06:34.848Z,42.00
2018-12-14T11:09:05.788Z,41.93
2018-12-14T11:11:34.832Z,43.43
2018-12-14T11:14:04.877Z,36.73
2018-12-14T11:16:34.124Z,39.47
2018-12-14T11:19:03.214Z,37.57
2018-12-14T11:21:33.847Z,37.97
2018-12-14T11:24:02.937Z,38.97
2018-12-14T11:26:32.236Z,39.77
2018-12-14T11:29:01.381Z,38.57
2018-12-14T11:31:30.425Z,36.97
2018-12-14T11:33:59.575Z,35.30
2018-12-14T11:36:28.763Z,35.73
2018-12-14T11:38:57.900Z,34.00
2018-12-14T11:41:27.357Z,34.63
2018-12-14T11:43:56.411Z,34.23
2018-12-14T11:46:26.328Z,36.27
2018-12-14T11:48:55.572Z,33.50
2018-12-14T11:51:26.683Z,32.97
2018-12-14T11:53:56.497Z,34.07
2018-12-14T11:56:25.557Z,32.87
2018-12-14T11:58:54.701Z,29.63
2018-12-14T12:01:23.969Z,30.20
2018-12-14T12:03:53.205Z,30.93
2018-12-14T12:06:22.731Z,29.20
2018-12-14T12:08:52.097Z,31.23
2018-12-14T12:11:21.130Z,31.33
2018-12-14T12:13:50.207Z,29.10
2018-12-14T12:16:19.689Z,30.80
2018-12-14T12:18:48.790Z,28.53
2018-12-14T12:21:18.030Z,27.13
2018-12-14T12:23:47.791Z,29.80
2018-12-14T12:26:16.837Z,26.70
2018-12-14T12:28:46.283Z,26.30
2018-12-14T12:31:15.956Z,26.10
2018-12-14T12:33:45.122Z,25.73
2018-12-14T12:36:14.357Z,23.00
2018-12-14T12:38:43.426Z,22.17
2018-12-14T12:41:12.627Z,23.10
2018-12-14T12:43:41.694Z,21.50
2018-12-14T12:46:11.122Z,22.17
2018-12-14T12:48:40.204Z,25.33
2018-12-14T12:51:09.307Z,33.60
2018-12-14T12:53:38.362Z,33.43
2018-12-14T12:56:07.842Z,24.70
2018-12-14T12:58:36.905Z,24.53
2018-12-14T13:01:05.996Z,24.40
2018-12-14T13:03:35.138Z,27.40
2018-12-14T13:06:04.862Z,28.80
2018-12-14T13:08:33.931Z,27.20
2018-12-14T13:11:03.188Z,24.40
2018-12-14T13:13:33.095Z,27.37
2018-12-14T13:16:02.312Z,27.93
2018-12-14T13:18:31.451Z,31.67
2018-12-14T13:21:00.740Z,31.67
2018-12-14T13:23:29.847Z,31.53
2018-12-14T13:25:59.139Z,32.53
2018-12-14T13:28:28.591Z,31.53
2018-12-14T13:30:57.889Z,31.53
2018-12-14T13:33:28.178Z,32.63
2018-12-14T13:35:57.516Z,32.30
2018-12-14T13:38:26.559Z,32.37
2018-12-14T13:40:55.685Z,32.93
2018-12-14T13:43:25.076Z,31.30
2018-12-14T13:45:54.949Z,32.47
2018-12-14T13:48:23.991Z,31.50
2018-12-14T13:50:53.380Z,32.80
2018-12-14T13:53:22.649Z,30.43
2018-12-14T13:55:52.684Z,31.83
2018-12-14T13:58:21.866Z,30.50
2018-12-14T14:00:50.902Z,31.67
2018-12-14T14:03:19.938Z,38.03
2018-12-14T14:05:49.370Z,32.57
2018-12-14T14:08:19.024Z,30.40
2018-12-14T14:10:48.118Z,34.10
2018-12-14T14:13:17.318Z,31.33
2018-12-14T14:15:50.703Z,33.90
2018-12-14T14:18:18.238Z,30.90
2018-12-14T14:20:47.315Z,33.63
2018-12-14T14:23:16.441Z,35.43
2018-12-14T14:25:47.518Z,32.13
2018-12-14T14:28:16.611Z,32.43
2018-12-14T14:30:45.716Z,33.33
2018-12-14T14:33:15.110Z,32.87
2018-12-14T14:35:44.180Z,37.33
2018-12-14T14:38:13.282Z,34.97
2018-12-14T14:40:42.339Z,36.23
2018-12-14T14:43:11.662Z,48.03
2018-12-14T14:45:41.077Z,47.23
2018-12-14T14:48:10.175Z,39.37
2018-12-14T14:50:39.244Z,45.47
2018-12-14T14:53:08.404Z,71.37
2018-12-14T14:55:37.787Z,47.23
2018-12-14T14:58:07.203Z,43.57
2018-12-14T15:00:36.242Z,43.40
2018-12-14T15:03:05.698Z,42.83
2018-12-14T15:05:34.930Z,42.93
2018-12-14T15:08:04.093Z,39.40
2018-12-14T15:10:33.171Z,42.37
2018-12-14T15:13:02.363Z,42.73
2018-12-14T15:15:31.511Z,43.80
2018-12-14T15:18:01.056Z,47.00
2018-12-14T15:20:30.189Z,42.90
2018-12-14T15:22:59.411Z,48.57
2018-12-14T15:25:28.477Z,47.90
2018-12-14T15:27:57.585Z,46.50
2018-12-14T15:30:26.770Z,47.07
2018-12-14T15:32:55.819Z,48.03
2018-12-14T15:35:25.200Z,51.77
2018-12-14T15:37:54.679Z,51.47
2018-12-14T15:40:24.087Z,45.80
2018-12-14T15:42:53.347Z,48.97
2018-12-14T15:45:22.560Z,49.40
2018-12-14T15:47:51.667Z,50.00
2018-12-14T15:50:20.810Z,49.00
2018-12-14T15:52:50.084Z,50.27
2018-12-14T15:55:19.151Z,50.90
2018-12-14T15:57:48.289Z,52.00
2018-12-14T16:00:17.612Z,44.97
2018-12-14T16:02:47.253Z,47.47
2018-12-14T16:05:16.929Z,49.90
2018-12-14T16:07:46.148Z,47.53
2018-12-14T16:10:15.892Z,48.83
2018-12-14T16:12:44.975Z,49.60
2018-12-14T16:15:19.673Z,49.60
2018-12-14T16:17:45.426Z,52.53
2018-12-14T16:20:14.618Z,51.47
2018-12-14T16:22:43.831Z,50.73
2018-12-14T16:25:13.125Z,54.33
2018-12-14T16:27:42.234Z,52.27
2018-12-14T16:30:11.528Z,52.60
2018-12-14T16:32:40.727Z,56.53
2018-12-14T16:35:09.900Z,56.00
2018-12-14T16:37:38.976Z,50.97
2018-12-14T16:40:08.337Z,56.23
2018-12-14T16:42:37.550Z,57.07
2018-12-14T16:45:07.377Z,55.60
2018-12-14T16:47:36.751Z,60.80
2018-12-14T16:50:07.229Z,57.97
2018-12-14T16:52:36.296Z,56.43
2018-12-14T16:55:06.877Z,57.70
2018-12-14T16:57:36.187Z,57.67
2018-12-14T17:00:06.771Z,55.20
2018-12-14T17:02:35.854Z,57.03
2018-12-14T17:05:05.318Z,54.30
2018-12-14T17:07:34.364Z,60.03
2018-12-14T17:10:03.890Z,56.13
2018-12-14T17:12:33.203Z,56.10
2018-12-14T17:15:02.295Z,60.23
2018-12-14T17:17:31.496Z,61.70
2018-12-14T17:20:00.823Z,60.73
2018-12-14T17:22:29.943Z,61.67
2018-12-14T17:24:59.008Z,61.77
2018-12-14T17:27:28.344Z,58.67
2018-12-14T17:29:57.709Z,64.87
2018-12-14T17:32:27.214Z,59.90
2018-12-14T17:34:56.515Z,58.87
2018-12-14T17:37:25.629Z,58.17
2018-12-14T17:39:54.681Z,59.03
2018-12-14T17:42:23.869Z,57.50
2018-12-14T17:44:53.100Z,63.63
2018-12-14T17:47:22.208Z,61.63
2018-12-14T17:49:51.411Z,62.03
2018-12-14T17:52:20.481Z,59.27
2018-12-14T17:54:49.830Z,59.37
2018-12-14T17:57:19.238Z,60.40
2018-12-14T17:59:48.429Z,59.40
2018-12-14T18:02:17.729Z,58.50
2018-12-14T18:04:46.925Z,58.77
2018-12-14T18:07:16.118Z,59.20
2018-12-14T18:09:45.258Z,57.30
2018-12-14T18:12:14.722Z,56.17
2018-12-14T18:14:44.042Z,58.67
2018-12-14T18:17:13.166Z,60.67
2018-12-14T18:19:42.553Z,58.37
2018-12-14T18:22:11.889Z,67.70
2018-12-14T18:24:41.030Z,64.87
2018-12-14T18:27:10.121Z,62.30
2018-12-14T18:29:39.375Z,62.50
2018-12-14T18:32:09.246Z,66.67
2018-12-14T18:34:38.614Z,63.43
2018-12-14T18:37:07.795Z,57.67
2018-12-14T18:39:36.969Z,60.67
2018-12-14T18:42:06.085Z,61.60
2018-12-14T18:44:35.570Z,60.63
2018-12-14T18:47:04.789Z,67.37
2018-12-14T18:49:33.988Z,63.77
2018-12-14T18:52:04.775Z,62.03
2018-12-14T18:54:34.013Z,59.37
2018-12-14T18:57:03.159Z,60.40
2018-12-14T18:59:32.750Z,60.60
2018-12-14T19:02:01.880Z,62.20
2018-12-14T19:04:31.077Z,63.47
2018-12-14T19:07:00.511Z,60.20
2018-12-14T19:09:29.766Z,58.97
2018-12-14T19:12:05.392Z,55.93
2018-12-14T19:14:34.546Z,60.23
2018-12-14T19:17:03.645Z,57.83
2018-12-14T19:19:32.749Z,60.77
2018-12-14T19:22:01.796Z,59.83
2018-12-14T19:24:31.051Z,57.93
2018-12-14T19:27:00.554Z,62.27
2018-12-14T19:29:29.791Z,60.80
2018-12-14T19:31:59.000Z,61.23
2018-12-14T19:34:31.461Z,57.37
2018-12-14T19:36:59.565Z,59.77
2018-12-14T19:39:29.121Z,63.03
2018-12-14T19:41:58.276Z,65.10
2018-12-14T19:44:27.735Z,62.13
2018-12-14T19:46:57.188Z,63.93
2018-12-14T19:49:26.308Z,65.73
2018-12-14T19:51:56.113Z,62.70
2018-12-14T19:54:26.684Z,68.10
2018-12-14T19:56:56.050Z,64.63
2018-12-14T19:59:25.225Z,60.33
2018-12-14T20:01:55.154Z,63.33
2018-12-14T20:04:24.368Z,63.53
2018-12-14T20:06:53.807Z,68.93
2018-12-14T20:09:22.996Z,100.53
2018-12-14T20:11:52.408Z,116.70
2018-12-14T20:14:24.235Z,87.10
2018-12-14T20:16:54.311Z,89.17
2018-12-14T20:19:24.544Z,97.00
2018-12-14T20:21:54.080Z,73.10
2018-12-14T20:24:23.481Z,80.00
2018-12-14T20:26:52.816Z,67.10
2018-12-14T20:29:22.102Z,61.33
2018-12-14T20:31:51.157Z,63.40
2018-12-14T20:34:20.787Z,60.30
2018-12-14T20:36:50.246Z,60.13
2018-12-14T20:39:19.463Z,59.00
2018-12-14T20:41:50.266Z,66.43
2018-12-14T20:44:20.440Z,58.13
2018-12-14T20:46:49.868Z,61.67
2018-12-14T20:49:19.193Z,57.40
2018-12-14T20:51:48.306Z,56.43
2018-12-14T20:54:17.822Z,57.53
2018-12-14T20:56:51.612Z,54.70
2018-12-14T20:59:19.064Z,59.83
2018-12-14T21:01:54.772Z,54.13
2018-12-14T21:04:23.823Z,57.70
2018-12-14T21:06:52.981Z,62.30
2018-12-14T21:09:22.476Z,52.83
2018-12-14T21:11:51.804Z,45.87
2018-12-14T21:14:21.391Z,43.67
2018-12-14T21:16:50.460Z,37.17
2018-12-14T21:19:19.625Z,45.20
2018-12-14T21:21:48.969Z,52.77
2018-12-14T21:24:18.160Z,54.57
2018-12-14T21:26:47.530Z,48.57
2018-12-14T21:29:16.610Z,42.27
2018-12-14T21:31:46.056Z,41.07
2018-12-14T21:34:15.372Z,43.80
2018-12-14T21:36:44.773Z,38.47
2018-12-14T21:39:13.893Z,38.90
2018-12-14T21:41:42.954Z,35.13
2018-12-14T21:44:12.943Z,34.80
2018-12-14T21:46:41.998Z,35.47
2018-12-14T21:49:11.293Z,35.40
2018-12-14T21:51:40.476Z,32.67
2018-12-14T21:54:09.549Z,29.93
2018-12-14T21:56:38.755Z,29.93
2018-12-14T21:59:07.900Z,30.53
2018-12-14T22:01:37.192Z,29.50
2018-12-14T22:04:06.274Z,27.03
2018-12-14T22:06:35.377Z,27.70
2018-12-14T22:09:08.676Z,27.73
2018-12-14T22:11:37.755Z,24.97
2018-12-14T22:14:06.853Z,25.03
2018-12-14T22:16:39.119Z,22.40
2018-12-14T22:19:07.311Z,22.80
2018-12-14T22:21:36.435Z,21.13
2018-12-14T22:24:05.635Z,21.03
2018-12-14T22:26:35.293Z,25.57
2018-12-14T22:29:04.773Z,30.80
2018-12-14T22:31:33.959Z,29.93
2018-12-14T22:34:03.309Z,29.10
2018-12-14T22:36:33.322Z,28.87
2018-12-14T22:39:02.394Z,32.00
2018-12-14T22:41:31.671Z,29.57
2018-12-14T22:44:00.892Z,28.93
2018-12-14T22:46:30.164Z,27.77
2018-12-14T22:48:59.212Z,28.67
2018-12-14T22:51:28.496Z,25.47
2018-12-14T22:53:57.813Z,24.80
2018-12-14T22:56:26.908Z,22.53
2018-12-14T22:58:56.257Z,22.20
2018-12-14T23:01:25.313Z,22.13
2018-12-14T23:03:54.366Z,21.07
2018-12-14T23:06:23.412Z,21.47
2018-12-14T23:08:52.500Z,22.20
2018-12-14T23:11:21.723Z,22.50
2018-12-14T23:13:51.173Z,20.60
2018-12-14T23:16:20.325Z,19.50
2018-12-14T23:18:49.681Z,19.47
2018-12-14T23:21:18.889Z,18.87
2018-12-14T23:23:47.993Z,18.40
2018-12-14T23:26:17.501Z,19.13
2018-12-14T23:28:47.268Z,20.70
2018-12-14T23:31:16.324Z,18.37
2018-12-14T23:33:46.155Z,23.13
2018-12-14T23:36:15.622Z,18.30
2018-12-14T23:38:44.718Z,19.47
2018-12-14T23:41:14.322Z,18.80
2018-12-14T23:43:43.494Z,19.63
2018-12-14T23:46:13.200Z,19.07
2018-12-14T23:48:42.299Z,17.27
2018-12-14T23:51:11.864Z,17.70
2018-12-14T23:53:42.001Z,20.40
2018-12-14T23:56:11.566Z,19.47
2018-12-14T23:58:41.104Z,19.60
